createdAt,value
2019-02-12T00:02:27.977Z,102261.36
2019-02-12T00:04:57.500Z,102262.63
2019-02-12T00:07:27.088Z,102262.60
2019-02-12T00:09:56.891Z,102267.38
2019-02-12T00:12:26.402Z,102265.23
2019-02-12T00:14:55.963Z,102268.23
2019-02-12T00:17:25.496Z,102262.60
2019-02-12T00:19:55.060Z,102260.45
2019-02-12T00:22:24.647Z,102262.97
2019-02-12T00:24:54.173Z,102277.66
2019-02-12T00:27:23.699Z,102275.41
2019-02-12T00:29:54.884Z,102282.77
2019-02-12T00:32:24.424Z,102284.52
2019-02-12T00:34:53.984Z,102291.88
2019-02-12T00:37:23.550Z,102290.55
2019-02-12T00:39:53.073Z,102286.20
2019-02-12T00:42:25.534Z,102284.02
2019-02-12T00:44:55.068Z,102288.77
2019-02-12T00:47:24.611Z,102283.55
2019-02-12T00:49:55.224Z,102288.74
2019-02-12T00:52:24.755Z,102284.42
2019-02-12T00:54:54.293Z,102282.67
2019-02-12T00:57:23.871Z,102289.14
2019-02-12T00:59:53.674Z,102292.17
2019-02-12T01:02:23.241Z,102287.00
2019-02-12T01:04:52.764Z,102296.05
2019-02-12T01:07:22.394Z,102294.34
2019-02-12T01:09:54.008Z,102294.34
2019-02-12T01:12:23.565Z,102285.68
2019-02-12T01:14:56.931Z,102288.64
2019-02-12T01:17:26.451Z,102289.06
2019-02-12T01:19:55.991Z,102292.13
2019-02-12T01:22:25.537Z,102294.68
2019-02-12T01:24:55.085Z,102300.72
2019-02-12T01:27:24.641Z,102302.91
2019-02-12T01:29:54.419Z,102303.75
2019-02-12T01:32:24.026Z,102304.20
2019-02-12T01:37:23.609Z,102310.67
2019-02-12T01:39:53.146Z,102308.08
2019-02-12T01:42:22.701Z,102311.51
2019-02-12T01:44:52.229Z,102317.55
2019-02-12T01:47:21.781Z,102311.54
2019-02-12T01:49:51.312Z,102312.83
2019-02-12T01:52:20.852Z,102318.45
2019-02-12T01:54:50.424Z,102326.20
2019-02-12T01:57:19.969Z,102321.03
2019-02-12T01:59:49.502Z,102322.35
2019-02-12T02:02:19.105Z,102319.37
2019-02-12T02:04:48.668Z,102320.72
2019-02-12T02:07:19.718Z,102317.23
2019-02-12T02:09:49.732Z,102318.55
2019-02-12T02:12:20.854Z,102314.70
2019-02-12T02:14:50.389Z,102320.69
2019-02-12T02:17:19.941Z,102319.81
2019-02-12T02:19:49.464Z,102323.25
2019-02-12T02:22:19.033Z,102329.73
2019-02-12T02:24:48.622Z,102318.50
2019-02-12T02:27:18.174Z,102322.83
2019-02-12T02:32:25.559Z,102324.99
2019-02-12T02:34:55.103Z,102324.56
2019-02-12T02:37:24.650Z,102326.73
2019-02-12T02:39:54.295Z,102328.00
2019-02-12T02:42:23.855Z,102327.60
2019-02-12T02:44:53.382Z,102333.17
2019-02-12T02:47:22.940Z,102334.48
2019-02-12T02:49:52.546Z,102337.49
2019-02-12T02:52:22.106Z,102336.20
2019-02-12T02:54:51.610Z,102337.49
2019-02-12T02:57:21.169Z,102341.38
2019-02-12T02:59:50.724Z,102336.16
2019-02-12T03:02:20.260Z,102333.98
2019-02-12T03:04:49.811Z,102338.34
2019-02-12T03:07:19.360Z,102350.40
2019-02-12T03:09:48.905Z,102358.91
2019-02-12T03:12:19.365Z,102355.03
2019-02-12T03:14:48.952Z,102354.17
2019-02-12T03:17:18.551Z,102352.88
2019-02-12T03:19:48.044Z,102347.22
2019-02-12T03:22:17.627Z,102355.46
2019-02-12T03:24:47.160Z,102356.23
2019-02-12T03:27:16.689Z,102360.14
2019-02-12T03:29:46.245Z,102365.70
2019-02-12T03:32:15.795Z,102366.97
2019-02-12T03:34:45.315Z,102363.57
2019-02-12T03:37:16.687Z,102368.77
2019-02-12T03:39:46.291Z,102362.73
2019-02-12T03:42:15.795Z,102369.20
2019-02-12T03:44:45.374Z,102366.09
2019-02-12T03:47:14.957Z,102364.38
2019-02-12T03:49:44.470Z,102373.46
2019-02-12T03:52:14.055Z,102370.03
2019-02-12T03:54:43.704Z,102369.16
2019-02-12T03:57:13.234Z,102377.73
2019-02-12T03:59:42.775Z,102378.18
2019-02-12T04:02:12.416Z,102367.78
2019-02-12T04:04:41.962Z,102369.06
2019-02-12T04:07:11.498Z,102367.29
2019-02-12T04:09:41.059Z,102369.42
2019-02-12T04:12:10.604Z,102368.58
2019-02-12T04:14:40.130Z,102367.36
2019-02-12T04:17:09.948Z,102363.93
2019-02-12T04:19:40.771Z,102370.33
2019-02-12T04:22:10.288Z,102369.84
2019-02-12T04:24:39.818Z,102368.58
2019-02-12T04:27:09.356Z,102374.55
2019-02-12T04:29:38.954Z,102362.47
2019-02-12T04:32:10.924Z,102369.35
2019-02-12T04:34:40.158Z,102369.80
2019-02-12T04:37:09.714Z,102365.05
2019-02-12T04:39:39.247Z,102363.28
2019-02-12T04:42:08.790Z,102371.06
2019-02-12T04:44:38.370Z,102371.94
2019-02-12T04:47:07.909Z,102362.05
2019-02-12T04:49:38.636Z,102368.34
2019-02-12T04:52:08.186Z,102361.50
2019-02-12T04:54:37.747Z,102368.80
2019-02-12T04:57:07.599Z,102370.02
2019-02-12T04:59:37.135Z,102370.39
2019-02-12T05:02:06.695Z,102372.14
2019-02-12T05:04:36.222Z,102375.21
2019-02-12T05:07:05.794Z,102378.67
2019-02-12T05:09:40.449Z,102376.01
2019-02-12T05:12:10.012Z,102382.02
2019-02-12T05:14:39.561Z,102379.39
2019-02-12T05:17:12.427Z,102383.14
2019-02-12T05:19:41.935Z,102377.52
2019-02-12T05:22:11.486Z,102380.56
2019-02-12T05:24:41.031Z,102381.36
2019-02-12T05:27:10.596Z,102377.48
2019-02-12T05:29:40.144Z,102384.39
2019-02-12T05:32:09.710Z,102368.41
2019-02-12T05:34:39.274Z,102381.44
2019-02-12T05:37:10.667Z,102391.72
2019-02-12T05:39:40.274Z,102399.52
2019-02-12T05:42:10.086Z,102397.69
2019-02-12T05:44:39.625Z,102404.63
2019-02-12T05:47:09.200Z,102407.62
2019-02-12T05:49:38.727Z,102408.88
2019-02-12T05:52:08.436Z,102405.42
2019-02-12T05:54:38.049Z,102402.89
2019-02-12T05:57:07.593Z,102400.34
2019-02-12T05:59:37.118Z,102392.97
2019-02-12T06:02:07.049Z,102395.55
2019-02-12T06:04:36.603Z,102400.77
2019-02-12T06:07:06.118Z,102399.02
2019-02-12T06:09:35.934Z,102407.09
2019-02-12T06:12:05.660Z,102412.75
2019-02-12T06:14:35.181Z,102408.01
2019-02-12T06:17:06.262Z,102408.42
2019-02-12T06:19:35.808Z,102405.02
2019-02-12T06:22:05.560Z,102414.92
2019-02-12T06:24:35.133Z,102409.77
2019-02-12T06:27:05.729Z,102415.00
2019-02-12T06:29:35.241Z,102417.59
2019-02-12T06:32:05.105Z,102417.22
2019-02-12T06:34:34.623Z,102418.12
2019-02-12T06:37:05.721Z,102415.12
2019-02-12T06:39:35.264Z,102413.76
2019-02-12T06:42:06.084Z,102422.84
2019-02-12T06:44:35.655Z,102414.25
2019-02-12T06:47:05.217Z,102421.13
2019-02-12T06:49:36.651Z,102422.88
2019-02-12T06:52:10.555Z,102425.92
2019-02-12T06:54:40.104Z,102431.96
2019-02-12T06:57:09.919Z,102433.25
2019-02-12T06:59:40.310Z,102438.04
2019-02-12T07:03:03.998Z,102435.80
2019-02-12T07:05:34.146Z,102438.75
2019-02-12T07:08:41.960Z,102444.00
2019-02-12T07:11:34.659Z,102452.20
2019-02-12T07:14:43.862Z,102453.41
2019-02-12T07:17:47.104Z,102461.70
2019-02-12T07:20:49.964Z,102459.12
2019-02-12T07:23:43.558Z,102466.45
2019-02-12T07:26:29.060Z,102475.99
2019-02-12T07:29:10.331Z,102479.41
2019-02-12T07:31:44.605Z,102479.08
2019-02-12T07:34:27.403Z,102489.45
2019-02-12T07:37:19.262Z,102493.25
2019-02-12T07:39:56.183Z,102496.30
2019-02-12T07:42:38.890Z,102500.13
2019-02-12T07:45:18.753Z,102505.33
2019-02-12T07:48:14.141Z,102510.00
2019-02-12T07:50:48.660Z,102511.33
2019-02-12T07:53:31.769Z,102510.50
2019-02-12T07:56:28.144Z,102511.05
2019-02-12T07:59:40.133Z,102518.84
2019-02-12T08:02:50.635Z,102532.68
2019-02-12T08:05:36.783Z,102535.72
2019-02-12T08:08:32.196Z,102531.05
2019-02-12T08:11:18.973Z,102533.22
2019-02-12T08:14:10.972Z,102545.31
2019-02-12T08:16:54.245Z,102536.77
2019-02-12T08:19:52.797Z,102546.31
2019-02-12T08:22:55.476Z,102556.27
2019-02-12T08:25:41.322Z,102561.86
2019-02-12T08:28:31.464Z,102561.90
2019-02-12T08:31:14.842Z,102563.27
2019-02-12T08:34:17.620Z,102559.81
2019-02-12T08:36:57.577Z,102563.73
2019-02-12T08:39:46.270Z,102565.98
2019-02-12T08:42:32.222Z,102566.02
2019-02-12T08:45:18.560Z,102560.49
2019-02-12T08:48:11.086Z,102564.80
2019-02-12T08:50:54.521Z,102562.59
2019-02-12T08:53:59.186Z,102574.72
2019-02-12T08:56:54.122Z,102578.22
2019-02-12T08:59:50.542Z,102577.38
2019-02-12T09:02:48.537Z,102575.67
2019-02-12T09:05:38.558Z,102579.55
2019-02-12T09:08:12.823Z,102579.09
2019-02-12T09:11:05.136Z,102586.82
2019-02-12T09:13:48.669Z,102595.49
2019-02-12T09:16:35.142Z,102592.91
2019-02-12T09:19:25.352Z,102598.77
2019-02-12T09:22:08.282Z,102605.80
2019-02-12T09:24:51.499Z,102607.52
2019-02-12T09:27:28.940Z,102604.16
2019-02-12T09:30:05.594Z,102603.81
2019-02-12T09:32:49.220Z,102602.56
2019-02-12T09:35:34.975Z,102606.05
2019-02-12T09:38:26.898Z,102610.25
2019-02-12T09:41:25.586Z,102612.52
2019-02-12T09:44:16.298Z,102616.48
2019-02-12T09:47:16.024Z,102613.89
2019-02-12T09:49:59.044Z,102603.95
2019-02-12T09:52:52.739Z,102611.82
2019-02-12T09:55:42.115Z,102616.61
2019-02-12T09:58:37.327Z,102615.83
2019-02-12T10:01:31.190Z,102612.86
2019-02-12T10:04:42.566Z,102611.11
2019-02-12T10:07:25.469Z,102618.06
2019-02-12T10:10:14.459Z,102618.55
2019-02-12T10:13:00.339Z,102607.79
2019-02-12T10:15:54.519Z,102613.88
2019-02-12T10:18:38.057Z,102609.98
2019-02-12T10:21:39.463Z,102615.56
2019-02-12T10:24:30.164Z,102623.84
2019-02-12T10:27:25.638Z,102621.70
2019-02-12T10:30:26.931Z,102622.57
2019-02-12T10:32:56.772Z,102627.39
2019-02-12T10:35:26.555Z,102615.30
2019-02-12T10:37:56.204Z,102621.75
2019-02-12T10:40:27.132Z,102625.27
2019-02-12T10:42:56.798Z,102626.48
2019-02-12T10:45:26.968Z,102625.69
2019-02-12T10:47:56.508Z,102627.03
2019-02-12T10:50:26.065Z,102628.41
2019-02-12T10:52:56.528Z,102623.67
2019-02-12T10:55:26.496Z,102617.66
2019-02-12T10:57:56.077Z,102613.83
2019-02-12T11:00:25.636Z,102607.39
2019-02-12T11:02:55.666Z,102610.52
2019-02-12T11:05:25.623Z,102610.97
2019-02-12T11:07:57.697Z,102610.12
2019-02-12T11:10:27.220Z,102609.29
2019-02-12T11:12:58.299Z,102608.83
2019-02-12T11:15:29.517Z,102608.41
2019-02-12T11:17:59.145Z,102601.98
2019-02-12T11:20:29.046Z,102598.98
2019-02-12T11:22:59.380Z,102599.45
2019-02-12T11:25:29.594Z,102599.91
2019-02-12T11:27:59.262Z,102593.88
2019-02-12T11:30:28.809Z,102596.05
2019-02-12T11:32:58.524Z,102602.06
2019-02-12T11:35:28.608Z,102589.57
2019-02-12T11:37:58.233Z,102599.08
2019-02-12T11:40:27.793Z,102595.63
2019-02-12T11:42:59.195Z,102595.66
2019-02-12T11:45:29.261Z,102595.23
2019-02-12T11:48:00.294Z,102597.84
2019-02-12T11:50:29.876Z,102585.73
2019-02-12T11:53:03.404Z,102587.88
2019-02-12T11:55:33.302Z,102591.34
2019-02-12T11:58:07.866Z,102586.57
2019-02-12T12:00:45.357Z,102581.38
2019-02-12T12:03:15.219Z,102579.67
2019-02-12T12:05:44.820Z,102575.32
2019-02-12T12:08:14.422Z,102573.17
2019-02-12T12:10:45.518Z,102570.98
2019-02-12T12:13:15.043Z,102564.92
2019-02-12T12:15:45.109Z,102567.95
2019-02-12T12:18:15.267Z,102564.47
2019-02-12T12:20:45.176Z,102564.88
2019-02-12T12:23:15.377Z,102567.95
2019-02-12T12:25:46.848Z,102571.85
2019-02-12T12:28:19.399Z,102574.00
2019-02-12T12:30:49.005Z,102570.95
2019-02-12T12:33:18.715Z,102575.73
2019-02-12T12:35:48.515Z,102581.78
2019-02-12T12:38:18.073Z,102573.13
2019-02-12T12:40:47.597Z,102574.44
2019-02-12T12:43:17.529Z,102573.13
2019-02-12T12:45:47.523Z,102571.85
2019-02-12T12:48:17.746Z,102573.17
2019-02-12T12:50:47.547Z,102574.86
2019-02-12T12:53:17.394Z,102565.35
2019-02-12T12:55:47.364Z,102566.20
2019-02-12T12:58:17.218Z,102560.56
2019-02-12T13:00:47.217Z,102561.44
2019-02-12T13:03:16.913Z,102568.38
2019-02-12T13:05:46.881Z,102564.91
2019-02-12T13:08:16.631Z,102567.52
2019-02-12T13:10:46.694Z,102574.47
2019-02-12T13:13:17.034Z,102571.41
2019-02-12T13:15:46.902Z,102572.70
2019-02-12T13:18:17.067Z,102574.00
2019-02-12T13:20:46.981Z,102567.08
2019-02-12T13:23:17.222Z,102568.82
2019-02-12T13:25:47.135Z,102571.83
2019-02-12T13:28:17.039Z,102585.72
2019-02-12T13:30:47.289Z,102581.38
2019-02-12T13:33:17.079Z,102583.10
2019-02-12T13:35:46.939Z,102589.19
2019-02-12T13:38:16.449Z,102592.64
2019-02-12T13:40:46.024Z,102586.14
2019-02-12T13:43:15.568Z,102579.20
2019-02-12T13:45:45.126Z,102574.43
2019-02-12T13:48:16.039Z,102560.16
2019-02-12T13:50:46.163Z,102568.80
2019-02-12T13:53:15.708Z,102582.23
2019-02-12T13:55:45.702Z,102583.10
2019-02-12T13:58:15.229Z,102574.02
2019-02-12T14:00:44.790Z,102576.62
2019-02-12T14:03:22.059Z,102577.45
2019-02-12T14:05:45.787Z,102574.89
2019-02-12T14:08:15.611Z,102578.76
2019-02-12T14:10:45.205Z,102579.65
2019-02-12T14:13:14.729Z,102577.92
2019-02-12T14:15:44.272Z,102581.82
2019-02-12T14:18:15.301Z,102580.08
2019-02-12T14:20:45.315Z,102578.80
2019-02-12T14:23:15.336Z,102579.22
2019-02-12T14:25:45.420Z,102583.55
2019-02-12T14:28:15.222Z,102577.45
2019-02-12T14:30:46.101Z,102586.98
2019-02-12T14:33:16.116Z,102584.83
2019-02-12T14:35:45.877Z,102580.45
2019-02-12T14:38:15.876Z,102584.35
2019-02-12T14:40:45.706Z,102579.13
2019-02-12T14:43:15.385Z,102577.36
2019-02-12T14:45:45.197Z,102575.19
2019-02-12T14:48:14.865Z,102571.27
2019-02-12T14:50:44.825Z,102577.34
2019-02-12T14:53:14.647Z,102576.04
2019-02-12T14:55:44.503Z,102571.30
2019-02-12T14:58:14.507Z,102575.63
2019-02-12T15:00:44.434Z,102573.88
2019-02-12T15:03:14.843Z,102580.41
2019-02-12T15:05:45.030Z,102584.31
2019-02-12T15:08:14.922Z,102578.66
2019-02-12T15:10:44.914Z,102583.01
2019-02-12T15:13:14.806Z,102586.45
2019-02-12T15:15:44.937Z,102577.80
2019-02-12T15:18:14.797Z,102579.55
2019-02-12T15:20:44.716Z,102576.08
2019-02-12T15:23:14.445Z,102567.38
2019-02-12T15:25:44.376Z,102573.06
2019-02-12T15:28:14.065Z,102567.41
2019-02-12T15:30:43.881Z,102574.35
2019-02-12T15:33:13.412Z,102579.55
2019-02-12T15:35:43.095Z,102577.41
2019-02-12T15:38:13.140Z,102586.06
2019-02-12T15:40:43.042Z,102581.30
2019-02-12T15:43:12.837Z,102589.12
2019-02-12T15:45:43.075Z,102593.05
2019-02-12T15:48:13.188Z,102591.28
2019-02-12T15:50:42.825Z,102588.28
2019-02-12T15:53:12.901Z,102583.95
2019-02-12T15:55:50.986Z,102580.92
2019-02-12T15:58:14.716Z,102586.13
2019-02-12T16:00:44.565Z,102581.34
2019-02-12T16:03:16.240Z,102581.80
2019-02-12T16:05:46.873Z,102581.80
2019-02-12T16:08:16.437Z,102578.75
2019-02-12T16:10:48.651Z,102591.34
2019-02-12T16:13:18.172Z,102599.57
2019-02-12T16:15:47.768Z,102597.40
2019-02-12T16:18:21.388Z,102593.05
2019-02-12T16:20:51.545Z,102590.05
2019-02-12T16:23:21.512Z,102588.73
2019-02-12T16:25:59.215Z,102598.72
2019-02-12T16:28:24.288Z,102593.95
2019-02-12T16:30:56.138Z,102600.03
2019-02-12T16:33:27.445Z,102609.11
2019-02-12T16:35:59.545Z,102609.97
2019-02-12T16:38:29.134Z,102608.69
2019-02-12T16:41:00.669Z,102613.02
2019-02-12T16:43:30.749Z,102618.22
2019-02-12T16:46:14.675Z,102621.22
2019-02-12T16:48:45.658Z,102627.30
2019-02-12T16:51:15.266Z,102627.28
2019-02-12T16:53:44.838Z,102627.72
2019-02-12T16:56:14.409Z,102640.28
2019-02-12T16:58:48.599Z,102640.27
2019-02-12T17:01:15.520Z,102644.16
2019-02-12T17:03:45.991Z,102640.23
2019-02-12T17:06:16.908Z,102649.34
2019-02-12T17:08:49.013Z,102653.23
2019-02-12T17:11:20.712Z,102656.70
2019-02-12T17:13:50.619Z,102663.16
2019-02-12T17:16:20.507Z,102665.32
2019-02-12T17:18:50.657Z,102670.50
2019-02-12T17:21:20.929Z,102668.31
2019-02-12T17:23:52.138Z,102669.17
2019-02-12T17:26:23.343Z,102674.37
2019-02-12T17:28:53.258Z,102674.34
2019-02-12T17:31:23.091Z,102672.59
2019-02-12T17:33:53.065Z,102673.45
2019-02-12T17:36:23.428Z,102666.11
2019-02-12T17:38:53.307Z,102678.65
2019-02-12T17:41:25.126Z,102682.53
2019-02-12T17:43:54.977Z,102682.95
2019-02-12T17:46:26.191Z,102680.77
2019-02-12T17:48:56.160Z,102678.61
2019-02-12T17:51:26.119Z,102678.61
2019-02-12T17:53:56.506Z,102676.44
2019-02-12T17:56:28.177Z,102683.80
2019-02-12T17:58:58.356Z,102691.97
2019-02-12T18:01:28.417Z,102691.11
2019-02-12T18:03:58.127Z,102684.17
2019-02-12T18:06:27.662Z,102685.46
2019-02-12T18:09:00.096Z,102687.59
2019-02-12T18:11:29.982Z,102692.75
2019-02-12T18:14:02.402Z,102692.31
2019-02-12T18:16:34.478Z,102688.84
2019-02-12T18:19:04.154Z,102684.95
2019-02-12T18:21:33.946Z,102691.39
2019-02-12T18:24:03.788Z,102689.68
2019-02-12T18:26:36.174Z,102682.34
2019-02-12T18:29:05.765Z,102679.75
2019-02-12T18:31:35.716Z,102680.58
2019-02-12T18:34:06.206Z,102680.98
2019-02-12T18:36:37.732Z,102675.33
2019-02-12T18:39:07.528Z,102683.53
2019-02-12T18:41:37.216Z,102680.97
2019-02-12T18:44:07.812Z,102676.20
2019-02-12T18:46:37.844Z,102674.02
2019-02-12T18:49:07.910Z,102674.80
2019-02-12T18:51:40.904Z,102668.74
2019-02-12T18:54:10.857Z,102669.17
2019-02-12T18:56:42.563Z,102668.33
2019-02-12T18:59:12.123Z,102672.61
2019-02-12T19:01:42.278Z,102673.91
2019-02-12T19:04:12.424Z,102667.86
2019-02-12T19:06:42.584Z,102673.86
2019-02-12T19:09:14.393Z,102668.25
2019-02-12T19:11:54.221Z,102672.54
2019-02-12T19:14:20.291Z,102667.81
2019-02-12T19:16:50.813Z,102668.62
2019-02-12T19:19:20.781Z,102665.61
2019-02-12T19:21:50.760Z,102662.20
2019-02-12T19:24:20.888Z,102659.08
2019-02-12T19:26:51.121Z,102657.41
2019-02-12T19:29:21.367Z,102648.77
2019-02-12T19:31:59.002Z,102652.66
2019-02-12T19:34:23.477Z,102659.95
2019-02-12T19:36:55.711Z,102663.79
2019-02-12T19:39:25.769Z,102675.91
2019-02-12T19:41:56.398Z,102675.45
2019-02-12T19:44:31.128Z,102677.63
2019-02-12T19:47:01.339Z,102683.68
2019-02-12T19:49:31.447Z,102687.57
2019-02-12T19:52:01.651Z,102680.64
2019-02-12T19:54:31.775Z,102682.35
2019-02-12T19:57:01.926Z,102678.47
2019-02-12T19:59:34.663Z,102681.48
2019-02-12T20:02:11.875Z,102684.52
2019-02-12T20:04:42.079Z,102691.00
2019-02-12T20:07:13.368Z,102675.01
2019-02-12T20:09:43.480Z,102679.77
2019-02-12T20:12:13.673Z,102680.19
2019-02-12T20:14:45.375Z,102682.75
2019-02-12T20:17:17.433Z,102681.88
2019-02-12T20:19:47.649Z,102680.13
2019-02-12T20:22:18.238Z,102678.83
2019-02-12T20:24:49.883Z,102684.47
2019-02-12T20:27:20.655Z,102683.17
2019-02-12T20:29:51.048Z,102684.02
2019-02-12T20:32:22.827Z,102686.58
2019-02-12T20:34:52.530Z,102691.77
2019-02-12T20:37:22.625Z,102687.91
2019-02-12T20:39:52.723Z,102687.87
2019-02-12T20:42:27.134Z,102681.01
2019-02-12T20:44:59.290Z,102681.40
2019-02-12T20:47:29.104Z,102671.45
2019-02-12T20:49:58.761Z,102673.59
2019-02-12T20:52:30.355Z,102673.59
2019-02-12T20:54:59.868Z,102676.16
2019-02-12T20:57:30.061Z,102670.13
2019-02-12T20:59:59.987Z,102667.96
2019-02-12T21:02:29.528Z,102670.98
2019-02-12T21:04:59.144Z,102672.27
2019-02-12T21:07:28.652Z,102679.62
2019-02-12T21:09:59.355Z,102684.80
2019-02-12T21:12:31.007Z,102691.73
2019-02-12T21:15:00.551Z,102686.12
2019-02-12T21:17:32.591Z,102689.98
2019-02-12T21:20:02.122Z,102685.68
2019-02-12T21:22:32.237Z,102688.75
2019-02-12T21:25:02.375Z,102685.70
2019-02-12T21:27:32.503Z,102688.33
2019-02-12T21:30:02.526Z,102684.41
2019-02-12T21:32:33.106Z,102680.98
2019-02-12T21:35:04.519Z,102682.30
2019-02-12T21:37:34.730Z,102685.28
2019-02-12T21:40:16.643Z,102685.73
2019-02-12T21:42:46.883Z,102675.38
2019-02-12T21:45:17.128Z,102680.53
2019-02-12T21:47:47.100Z,102684.86
2019-02-12T21:50:17.746Z,102686.19
2019-02-12T21:52:47.412Z,102695.23
2019-02-12T21:55:22.273Z,102704.33
2019-02-12T21:57:52.203Z,102712.94
2019-02-12T22:00:23.272Z,102721.17
2019-02-12T22:02:53.377Z,102720.30
2019-02-12T22:05:23.574Z,102724.63
2019-02-12T22:07:53.784Z,102729.39
2019-02-12T22:10:26.904Z,102724.24
2019-02-12T22:12:57.185Z,102731.59
2019-02-12T22:15:27.764Z,102728.16
2019-02-12T22:17:57.689Z,102726.41
2019-02-12T22:20:27.755Z,102727.28
2019-02-12T22:22:57.919Z,102726.41
2019-02-12T22:25:27.710Z,102736.38
2019-02-12T22:27:57.821Z,102743.77
2019-02-12T22:30:27.673Z,102743.80
2019-02-12T22:32:57.521Z,102740.75
2019-02-12T22:35:27.160Z,102755.88
2019-02-12T22:37:57.123Z,102756.30
2019-02-12T22:40:27.882Z,102749.86
2019-02-12T22:42:57.469Z,102758.47
2019-02-12T22:45:27.395Z,102753.27
2019-02-12T22:47:56.972Z,102755.01
2019-02-12T22:50:26.510Z,102759.77
2019-02-12T22:52:56.042Z,102760.61
2019-02-12T22:55:25.582Z,102769.72
2019-02-12T22:57:55.149Z,102755.97
2019-02-12T23:00:46.999Z,102751.63
2019-02-12T23:03:16.546Z,102742.56
2019-02-12T23:05:46.094Z,102744.73
2019-02-12T23:08:15.670Z,102744.70
2019-02-12T23:10:45.315Z,102747.69
2019-02-12T23:13:14.860Z,102746.87
2019-02-12T23:15:44.449Z,102751.63
2019-02-12T23:18:14.024Z,102749.91
2019-02-12T23:20:43.584Z,102745.57
2019-02-12T23:23:13.162Z,102753.77
2019-02-12T23:25:42.699Z,102753.80
2019-02-12T23:28:12.252Z,102755.49
2019-02-12T23:30:42.061Z,102751.21
2019-02-12T23:33:11.586Z,102753.80
2019-02-12T23:35:41.130Z,102757.69
2019-02-12T23:38:10.666Z,102755.94
2019-02-12T23:40:40.285Z,102754.64
2019-02-12T23:43:09.795Z,102749.44
2019-02-12T23:45:39.380Z,102764.98
2019-02-12T23:48:08.906Z,102764.14
2019-02-12T23:50:38.456Z,102760.70
2019-02-12T23:53:07.977Z,102762.00
2019-02-12T23:55:37.538Z,102761.58
2019-02-12T23:58:07.081Z,102762.84
